Terminal Aerodrome Forecast
Issued by NWS Buffalo, NY

Home | Current Version | Previous Version | Text Only | Print | Product List | Glossary On
Versions: 1 2 3 4 5 6 7 8 9 10 11 12 13 14 15 16 17 18 19 20 21 22 23 24 25 26 27 28 29 30 31
000
FTUS41 KBUF 172300
TAFBUF
TAF
KBUF 172331Z 1800/1824 23010KT P6SM FEW250
     FM180800 20005KT 2SM BR VCFG FEW250
     FM181000 21006KT P6SM FEW250
     FM181600 26014G20KT P6SM SCT200
     FM181800 31014G24KT P6SM FEW250=

USA.gov is the U.S. government's official web portal to all federal, state and local government web resources and services.